createdAt,value
2023-03-04T00:04:58.378Z,4.8
2023-03-04T00:10:50.954Z,4.8
2023-03-04T00:16:31.015Z,4.8
2023-03-04T00:22:24.126Z,4.7
2023-03-04T00:28:01.798Z,4.6
2023-03-04T00:33:54.118Z,4.6
2023-03-04T00:39:47.364Z,4.6
2023-03-04T00:45:24.662Z,4.6
2023-03-04T00:50:46.484Z,4.6
2023-03-04T00:56:38.081Z,4.6
2023-03-04T01:02:15.638Z,4.6
2023-03-04T01:07:37.800Z,4.6
2023-03-04T01:13:15.442Z,4.6
2023-03-04T01:18:52.924Z,4.6
2023-03-04T01:24:29.505Z,4.6
2023-03-04T01:30:06.686Z,4.6
2023-03-04T01:35:44.247Z,4.6
2023-03-04T01:41:05.797Z,4.6
2023-03-04T01:46:30.723Z,4.6
2023-03-04T01:51:53.474Z,4.6
2023-03-04T01:57:14.934Z,4.6
2023-03-04T02:02:36.753Z,4.5
2023-03-04T02:07:59.052Z,4.5
2023-03-04T02:13:36.646Z,4.5
2023-03-04T02:18:43.774Z,4.4
2023-03-04T02:24:05.785Z,4.4
2023-03-04T02:29:42.636Z,4.3
2023-03-04T02:35:20.249Z,4.2
2023-03-04T02:40:57.781Z,4.1
2023-03-04T02:46:34.318Z,4
2023-03-04T02:52:11.035Z,3.9
2023-03-04T02:57:48.465Z,3.9
2023-03-04T03:03:10.419Z,3.7
2023-03-04T03:08:48.396Z,3.4
2023-03-04T03:14:26.283Z,3.4
2023-03-04T03:19:49.248Z,3.3
2023-03-04T03:25:26.913Z,3.3
2023-03-04T03:31:03.814Z,3.4
2023-03-04T03:36:41.622Z,3.3
2023-03-04T03:42:18.876Z,3.3
2023-03-04T03:47:41.190Z,3.2
2023-03-04T03:53:02.565Z,3.2
2023-03-04T03:58:41.309Z,3.1
2023-03-04T04:04:19.300Z,3.1
2023-03-04T04:09:56.635Z,2.9
2023-03-04T04:15:33.767Z,2.6
2023-03-04T04:20:59.136Z,2.7
2023-03-04T04:26:36.638Z,2.3
2023-03-04T04:32:13.699Z,2.1
2023-03-04T04:37:20.036Z,2.5
2023-03-04T04:42:57.611Z,2.3
2023-03-04T04:48:20.155Z,2.6
2023-03-04T04:54:13.743Z,2.4
2023-03-04T04:59:50.576Z,2.4
2023-03-04T05:05:27.973Z,2.3
2023-03-04T05:11:05.403Z,2.1
2023-03-04T05:16:57.894Z,2
2023-03-04T05:22:35.077Z,2.1
2023-03-04T05:28:11.745Z,2.2
2023-03-04T05:33:49.152Z,2.5
2023-03-04T05:39:27.592Z,2.6
2023-03-04T05:45:04.180Z,2.8
2023-03-04T05:50:56.710Z,3.2
2023-03-04T05:56:49.696Z,3.3
2023-03-04T06:02:42.403Z,3.4
2023-03-04T06:08:19.762Z,3.6
2023-03-04T06:14:12.276Z,3.8
2023-03-04T06:20:05.163Z,4.1
2023-03-04T06:25:57.272Z,4.5
2023-03-04T06:31:37.007Z,4.9
2023-03-04T06:37:30.093Z,5.2
2023-03-04T06:43:23.264Z,5.4
2023-03-04T06:49:01.356Z,5.5
2023-03-04T06:54:54.222Z,5.3
2023-03-04T07:00:46.100Z,5.4
2023-03-04T07:06:38.136Z,5.4
2023-03-04T07:12:30.546Z,5.7
2023-03-04T07:18:23.317Z,5.7
2023-03-04T07:24:17.124Z,5.6
2023-03-04T07:30:09.004Z,5.6
2023-03-04T07:36:01.619Z,5.9
2023-03-04T07:41:54.531Z,6.1
2023-03-04T07:47:47.452Z,6.3
2023-03-04T07:53:42.905Z,6.5
2023-03-04T07:59:35.189Z,6.6
2023-03-04T08:05:27.613Z,6.4
2023-03-04T08:11:19.959Z,6.4
2023-03-04T08:17:13.251Z,6.6
2023-03-04T08:22:51.393Z,6.6
2023-03-04T08:28:29.248Z,6.9
2023-03-04T08:34:24.341Z,7.1
2023-03-04T08:40:04.715Z,7
2023-03-04T08:45:57.697Z,7.3
2023-03-04T08:51:51.243Z,7.4
2023-03-04T08:57:43.628Z,6.9
2023-03-04T09:03:36.323Z,7.4
2023-03-04T09:09:29.052Z,7.6
2023-03-04T09:15:31.231Z,7.9
2023-03-04T09:21:24.976Z,8.1
2023-03-04T09:27:17.837Z,7.9
2023-03-04T09:33:10.826Z,7.4
2023-03-04T09:39:03.211Z,8.2
2023-03-04T09:44:40.725Z,8.6
2023-03-04T09:50:35.728Z,8.6
2023-03-04T09:56:32.951Z,9
2023-03-04T10:02:26.805Z,8.9
2023-03-04T10:08:19.307Z,8.9
2023-03-04T10:14:11.489Z,9
2023-03-04T10:20:05.373Z,9.6
2023-03-04T10:26:00.942Z,9.3
2023-03-04T10:31:38.429Z,9.3
2023-03-04T10:37:31.387Z,9.8
2023-03-04T10:43:24.277Z,10.3
2023-03-04T10:49:17.338Z,10.3
2023-03-04T10:55:09.782Z,10.7
2023-03-04T11:00:49.057Z,9.8
2023-03-04T11:06:42.017Z,10.2
2023-03-04T11:12:44.704Z,10.1
2023-03-04T11:18:36.320Z,11.1
2023-03-04T11:24:45.086Z,10.7
2023-03-04T11:30:37.516Z,9.9
2023-03-04T11:36:31.637Z,10.9
2023-03-04T11:42:24.896Z,10.8
2023-03-04T11:48:34.923Z,10.9
2023-03-04T11:54:27.628Z,9.4
2023-03-04T12:00:21.160Z,9.6
2023-03-04T12:06:15.119Z,9.8
2023-03-04T12:11:52.838Z,10.2
2023-03-04T12:17:48.027Z,10.6
2023-03-04T12:23:40.363Z,10.4
2023-03-04T12:29:19.087Z,10.9
2023-03-04T12:35:16.071Z,10.8
2023-03-04T12:40:54.450Z,10.7
2023-03-04T12:46:30.852Z,10.8
2023-03-04T12:52:25.477Z,10.6
2023-03-04T12:58:19.004Z,10.2
2023-03-04T13:03:57.429Z,10.2
2023-03-04T13:09:34.925Z,9.9
2023-03-04T13:15:31.043Z,9.8
2023-03-04T13:21:09.903Z,9.9
2023-03-04T13:27:04.261Z,9.9
2023-03-04T13:33:00.481Z,10.1
2023-03-04T13:38:55.449Z,9.6
2023-03-04T13:44:32.770Z,9.5
2023-03-04T13:50:26.922Z,8.9
2023-03-04T13:56:34.936Z,9.3
2023-03-04T14:02:29.079Z,8.9
2023-03-04T14:08:23.543Z,8.9
2023-03-04T14:14:00.885Z,9.4
2023-03-04T14:19:54.037Z,9.3
2023-03-04T14:25:47.389Z,9.3
2023-03-04T14:31:34.259Z,9.3
2023-03-04T14:37:27.569Z,9.3
2023-03-04T14:43:19.721Z,9.5
2023-03-04T14:49:24.570Z,9.3
2023-03-04T14:55:16.856Z,9.3
2023-03-04T15:01:08.960Z,9.3
2023-03-04T15:07:02.845Z,9.3
2023-03-04T15:12:55.831Z,9.2
2023-03-04T15:18:49.094Z,9.1
2023-03-04T15:24:25.653Z,9.3
2023-03-04T15:30:20.372Z,9.3
2023-03-04T15:36:13.563Z,9.2
2023-03-04T15:42:04.519Z,9.1
2023-03-04T15:47:45.398Z,8.9
2023-03-04T15:53:24.222Z,8.9
2023-03-04T15:59:16.234Z,8.7
2023-03-04T16:05:08.865Z,8.5
2023-03-04T16:11:01.554Z,8.4
2023-03-04T16:16:54.069Z,8.3
2023-03-04T16:22:46.395Z,8.1
2023-03-04T16:28:39.157Z,7.9
2023-03-04T16:34:18.612Z,7.9
2023-03-04T16:40:11.607Z,7.7
2023-03-04T16:45:49.042Z,7.6
2023-03-04T16:51:43.086Z,7.6
2023-03-04T16:57:36.046Z,7.6
2023-03-04T17:03:29.412Z,7.6
2023-03-04T17:09:24.037Z,7.5
2023-03-04T17:15:00.905Z,7.5
2023-03-04T17:20:38.244Z,7.5
2023-03-04T17:26:30.173Z,7.4
2023-03-04T17:32:07.362Z,7.4
2023-03-04T17:38:00.242Z,7.4
2023-03-04T17:43:37.040Z,7.3
2023-03-04T17:49:14.441Z,7.3
2023-03-04T17:55:06.325Z,7.3
2023-03-04T18:00:42.990Z,7.3
2023-03-04T18:06:35.657Z,7.3
2023-03-04T18:12:12.926Z,7.2
2023-03-04T18:18:05.075Z,7.1
2023-03-04T18:23:26.428Z,7.1
2023-03-04T18:29:03.853Z,7.2
2023-03-04T18:34:52.543Z,7.1
2023-03-04T18:40:29.881Z,7.1
2023-03-04T18:46:23.257Z,7.1
2023-03-04T18:52:15.734Z,7.1
2023-03-04T18:58:08.463Z,7
2023-03-04T19:04:01.220Z,6.9
2023-03-04T19:09:52.756Z,7
2023-03-04T19:15:31.931Z,7
2023-03-04T19:20:53.154Z,6.9
2023-03-04T19:32:23.205Z,6.9
2023-03-04T19:38:00.223Z,6.9
2023-03-04T19:43:05.874Z,6.8
2023-03-04T19:48:59.114Z,6.8
2023-03-04T19:54:36.194Z,6.8
2023-03-04T20:00:13.855Z,6.9
2023-03-04T20:05:51.468Z,6.9
2023-03-04T20:11:13.200Z,6.9
2023-03-04T20:16:30.671Z,6.9
2023-03-04T20:22:07.750Z,6.9
2023-03-04T20:27:29.989Z,6.9
2023-03-04T20:33:07.473Z,6.8
2023-03-04T20:38:45.471Z,6.8
2023-03-04T20:44:34.086Z,6.8
2023-03-04T20:50:26.069Z,6.6
2023-03-04T20:56:02.613Z,6.6
2023-03-04T21:00:53.825Z,6.6
2023-03-04T21:06:46.362Z,6.6
2023-03-04T21:12:39.566Z,6.5
2023-03-04T21:18:32.305Z,6.4
2023-03-04T21:24:28.696Z,6.4
2023-03-04T21:30:21.377Z,6.4
2023-03-04T21:36:13.216Z,6.4
2023-03-04T21:41:50.393Z,6.4
2023-03-04T21:47:26.684Z,6.3
2023-03-04T21:53:21.646Z,6.3
2023-03-04T21:58:43.052Z,6.3
2023-03-04T22:04:21.692Z,6.3
2023-03-04T22:10:14.033Z,6.3
2023-03-04T22:21:09.571Z,6.2
2023-03-04T22:26:31.415Z,6.1
2023-03-04T22:32:09.076Z,6.1
2023-03-04T22:37:16.714Z,6.1
2023-03-04T22:42:37.800Z,6
2023-03-04T22:47:59.895Z,5.9
2023-03-04T22:53:37.119Z,5.9
2023-03-04T22:59:14.685Z,6
2023-03-04T23:05:07.109Z,5.9
2023-03-04T23:10:59.212Z,5.9
2023-03-04T23:16:52.008Z,5.9
2023-03-04T23:22:44.423Z,5.9
2023-03-04T23:28:22.282Z,5.9
2023-03-04T23:34:15.803Z,5.9
2023-03-04T23:40:08.183Z,5.9
2023-03-04T23:46:00.776Z,5.8
2023-03-04T23:51:38.321Z,5.8
2023-03-04T23:57:30.963Z,5.8
